createdAt,value
2023-05-04T00:01:11.434Z,9.00
2023-05-04T00:03:38.904Z,9.60
2023-05-04T00:06:05.937Z,15.60
2023-05-04T00:08:32.919Z,10.73
2023-05-04T00:10:59.728Z,10.23
2023-05-04T00:13:26.747Z,8.80
2023-05-04T00:15:53.697Z,9.80
2023-05-04T00:18:20.740Z,9.37
2023-05-04T00:20:47.608Z,11.00
2023-05-04T00:23:14.495Z,10.10
2023-05-04T00:25:41.321Z,12.37
2023-05-04T00:28:08.170Z,7.93
2023-05-04T00:30:35.041Z,14.37
2023-05-04T00:33:02.019Z,9.20
2023-05-04T00:35:31.597Z,9.90
2023-05-04T00:37:58.498Z,10.10
2023-05-04T00:40:25.557Z,11.83
2023-05-04T00:42:52.489Z,9.83
2023-05-04T00:45:19.499Z,9.30
2023-05-04T00:47:46.597Z,11.53
2023-05-04T00:50:13.526Z,13.30
2023-05-04T00:52:43.168Z,10.53
2023-05-04T00:55:11.047Z,12.07
2023-05-04T00:57:38.730Z,9.37
2023-05-04T01:00:07.550Z,9.27
2023-05-04T01:02:35.143Z,11.50
2023-05-04T01:05:02.789Z,9.40
2023-05-04T01:08:04.118Z,11.10
2023-05-04T01:10:41.268Z,10.00
2023-05-04T01:13:15.191Z,9.00
2023-05-04T01:15:43.277Z,11.77
2023-05-04T01:18:11.951Z,9.50
2023-05-04T01:20:38.985Z,8.07
2023-05-04T01:23:05.992Z,10.53
2023-05-04T01:25:56.396Z,8.27
2023-05-04T01:28:33.031Z,10.23
2023-05-04T01:31:01.899Z,9.50
2023-05-04T01:33:31.660Z,13.10
2023-05-04T01:35:59.326Z,10.20
2023-05-04T01:38:26.228Z,11.07
2023-05-04T01:40:53.159Z,11.20
2023-05-04T01:43:20.088Z,10.13
2023-05-04T01:45:47.137Z,7.97
2023-05-04T01:48:14.034Z,12.20
2023-05-04T01:50:41.367Z,9.43
2023-05-04T01:53:08.250Z,11.00
2023-05-04T01:55:35.528Z,8.80
2023-05-04T01:58:02.451Z,14.20
2023-05-04T02:00:29.378Z,13.87
2023-05-04T02:02:56.351Z,10.93
2023-05-04T02:05:23.302Z,13.13
2023-05-04T02:07:50.098Z,12.00
2023-05-04T02:10:17.276Z,11.37
2023-05-04T02:12:44.259Z,11.87
2023-05-04T02:15:11.817Z,10.90
2023-05-04T02:17:38.752Z,10.13
2023-05-04T02:20:06.675Z,10.30
2023-05-04T02:22:33.803Z,9.27
2023-05-04T02:25:00.879Z,11.90
2023-05-04T02:27:27.782Z,13.90
2023-05-04T02:29:54.774Z,9.30
2023-05-04T02:32:22.469Z,10.17
2023-05-04T02:34:49.258Z,12.63
2023-05-04T02:37:16.492Z,8.77
2023-05-04T02:39:43.400Z,9.17
2023-05-04T02:42:10.454Z,12.53
2023-05-04T02:44:37.439Z,10.60
2023-05-04T02:47:05.948Z,11.03
2023-05-04T02:49:34.306Z,10.57
2023-05-04T02:52:01.215Z,9.70
2023-05-04T02:54:28.023Z,10.47
2023-05-04T02:56:54.942Z,10.83
2023-05-04T02:59:21.772Z,12.00
2023-05-04T03:01:48.738Z,8.77
2023-05-04T03:04:15.805Z,10.80
2023-05-04T03:06:42.718Z,7.97
2023-05-04T03:09:09.932Z,10.03
2023-05-04T03:11:36.785Z,11.53
2023-05-04T03:14:03.630Z,10.60
2023-05-04T03:16:30.643Z,10.37
2023-05-04T03:18:57.570Z,8.57
2023-05-04T03:21:24.471Z,9.40
2023-05-04T03:23:51.364Z,8.33
2023-05-04T03:26:18.314Z,8.83
2023-05-04T03:28:45.358Z,10.90
2023-05-04T03:31:12.323Z,8.50
2023-05-04T03:33:39.196Z,8.07
2023-05-04T03:36:06.393Z,8.73
2023-05-04T03:38:33.398Z,9.30
2023-05-04T03:41:00.367Z,9.13
2023-05-04T03:43:27.385Z,10.63
2023-05-04T03:45:54.233Z,8.60
2023-05-04T03:48:21.327Z,9.47
2023-05-04T03:50:48.308Z,8.93
2023-05-04T03:53:15.245Z,7.50
2023-05-04T03:55:42.560Z,10.90
2023-05-04T03:58:09.467Z,9.20
2023-05-04T04:00:36.325Z,10.57
2023-05-04T04:03:03.327Z,10.73
2023-05-04T04:05:30.581Z,8.73
2023-05-04T04:07:57.487Z,12.30
2023-05-04T04:10:24.548Z,9.57
2023-05-04T04:12:51.480Z,8.43
2023-05-04T04:15:18.358Z,9.20
2023-05-04T04:17:45.380Z,10.57
2023-05-04T04:20:13.019Z,8.23
2023-05-04T04:22:39.995Z,14.77
2023-05-04T04:25:07.731Z,8.30
2023-05-04T04:27:34.640Z,10.27
2023-05-04T04:30:01.537Z,10.20
2023-05-04T04:32:29.162Z,10.40
2023-05-04T04:34:56.183Z,9.23
2023-05-04T04:37:23.353Z,9.07
2023-05-04T04:39:50.589Z,12.70
2023-05-04T04:42:17.498Z,10.37
2023-05-04T04:44:45.743Z,11.27
2023-05-04T04:47:13.230Z,9.57
2023-05-04T04:49:40.219Z,9.20
2023-05-04T04:52:07.028Z,10.30
2023-05-04T04:54:33.869Z,11.67
2023-05-04T04:57:00.768Z,11.23
2023-05-04T04:59:28.239Z,8.40
2023-05-04T05:01:55.134Z,8.10
2023-05-04T05:04:22.772Z,8.07
2023-05-04T05:06:51.587Z,9.37
2023-05-04T05:09:18.551Z,10.00
2023-05-04T05:11:45.505Z,10.83
2023-05-04T05:14:12.831Z,9.03
2023-05-04T05:16:39.831Z,10.67
2023-05-04T05:19:06.914Z,8.63
2023-05-04T05:21:33.838Z,7.67
2023-05-04T05:24:01.807Z,9.43
2023-05-04T05:26:28.897Z,7.10
2023-05-04T05:28:55.761Z,8.80
2023-05-04T05:31:22.826Z,8.10
2023-05-04T05:33:49.779Z,9.30
2023-05-04T05:36:16.781Z,7.43
2023-05-04T05:38:43.668Z,10.23
2023-05-04T05:41:10.559Z,8.33
2023-05-04T05:43:38.768Z,10.37
2023-05-04T05:46:06.961Z,10.27
2023-05-04T05:48:34.503Z,7.90
2023-05-04T05:51:01.488Z,10.60
2023-05-04T05:53:28.551Z,9.43
2023-05-04T05:55:55.605Z,11.47
2023-05-04T05:58:22.485Z,8.87
2023-05-04T06:00:49.366Z,9.03
2023-05-04T06:03:16.404Z,9.07
2023-05-04T06:05:43.417Z,10.20
2023-05-04T06:08:10.430Z,7.57
2023-05-04T06:10:37.295Z,7.40
2023-05-04T06:13:04.239Z,10.83
2023-05-04T06:15:31.391Z,8.40
2023-05-04T06:17:58.440Z,8.47
2023-05-04T06:20:25.347Z,8.30
2023-05-04T06:22:52.147Z,10.60
2023-05-04T06:25:19.070Z,9.17
2023-05-04T06:27:45.960Z,7.47
2023-05-04T06:30:13.630Z,13.57
2023-05-04T06:32:40.558Z,10.50
2023-05-04T06:35:09.194Z,9.47
2023-05-04T06:37:36.309Z,8.23
2023-05-04T06:40:04.160Z,11.20
2023-05-04T06:42:34.150Z,9.90
2023-05-04T06:45:01.176Z,8.23
2023-05-04T06:47:28.210Z,11.10
2023-05-04T06:49:55.089Z,10.63
2023-05-04T06:52:21.979Z,11.70
2023-05-04T06:54:48.932Z,9.93
2023-05-04T06:57:16.302Z,12.50
2023-05-04T06:59:43.129Z,9.77
2023-05-04T07:02:10.032Z,8.63
2023-05-04T07:04:37.298Z,9.17
2023-05-04T07:07:04.173Z,12.73
2023-05-04T07:09:31.057Z,10.40
2023-05-04T07:11:57.986Z,9.20
2023-05-04T07:14:24.960Z,8.10
2023-05-04T07:16:52.191Z,7.37
2023-05-04T07:19:19.063Z,5.60
2023-05-04T07:21:47.209Z,7.30
2023-05-04T07:24:14.166Z,6.23
2023-05-04T07:26:40.993Z,9.70
2023-05-04T07:29:07.933Z,8.40
2023-05-04T07:31:35.041Z,7.20
2023-05-04T07:34:02.193Z,6.60
2023-05-04T07:36:29.153Z,7.33
2023-05-04T07:38:56.489Z,9.07
2023-05-04T07:41:23.351Z,6.83
2023-05-04T07:43:50.223Z,7.60
2023-05-04T07:46:17.272Z,6.50
2023-05-04T07:48:44.268Z,7.07
2023-05-04T07:51:14.943Z,5.63
2023-05-04T07:53:43.222Z,7.53
2023-05-04T07:56:12.490Z,7.20
2023-05-04T07:58:39.558Z,8.43
2023-05-04T08:01:06.451Z,9.00
2023-05-04T08:03:33.491Z,7.13
2023-05-04T08:06:00.459Z,8.53
2023-05-04T08:08:27.825Z,7.70
2023-05-04T08:10:57.710Z,5.50
2023-05-04T08:13:29.083Z,5.80
2023-05-04T08:16:01.323Z,11.17
2023-05-04T08:18:28.313Z,9.20
2023-05-04T08:20:57.689Z,6.63
2023-05-04T08:23:24.627Z,9.40
2023-05-04T08:25:52.502Z,7.00
2023-05-04T08:28:19.351Z,6.80
2023-05-04T08:30:46.306Z,7.77
2023-05-04T08:33:13.259Z,7.03
2023-05-04T08:35:40.250Z,8.13
2023-05-04T08:38:08.156Z,6.13
2023-05-04T08:40:35.157Z,8.93
2023-05-04T08:43:03.533Z,7.83
2023-05-04T08:45:31.017Z,10.67
2023-05-04T08:47:58.003Z,6.50
2023-05-04T08:50:25.795Z,8.53
2023-05-04T08:52:53.570Z,7.73
2023-05-04T08:55:20.846Z,7.17
2023-05-04T08:57:49.437Z,8.67
2023-05-04T09:00:18.997Z,10.67
2023-05-04T09:02:47.033Z,5.30
2023-05-04T09:05:14.767Z,8.60
2023-05-04T09:07:41.803Z,6.07
2023-05-04T09:10:09.327Z,7.53
2023-05-04T09:12:37.971Z,10.97
2023-05-04T09:15:18.824Z,7.93
2023-05-04T09:18:00.739Z,6.00
2023-05-04T09:20:27.815Z,6.53
2023-05-04T09:23:08.479Z,7.03
2023-05-04T09:25:48.000Z,8.20
2023-05-04T09:28:16.008Z,6.27
2023-05-04T09:30:45.824Z,8.87
2023-05-04T09:33:13.183Z,8.70
2023-05-04T09:35:44.704Z,8.37
2023-05-04T09:38:11.645Z,6.57
2023-05-04T09:40:41.362Z,6.67
2023-05-04T09:43:09.456Z,9.60
2023-05-04T09:45:44.717Z,9.17
2023-05-04T09:48:25.711Z,7.90
2023-05-04T09:50:57.616Z,9.33
2023-05-04T09:53:27.183Z,8.03
2023-05-04T09:56:18.103Z,8.53
2023-05-04T09:58:46.307Z,7.37
2023-05-04T10:01:13.310Z,10.10
2023-05-04T10:03:40.677Z,6.87
2023-05-04T10:06:09.189Z,7.87
2023-05-04T10:08:37.119Z,8.93
2023-05-04T10:11:04.839Z,7.53
2023-05-04T10:13:31.763Z,10.73
2023-05-04T10:16:12.537Z,7.97
2023-05-04T10:18:59.765Z,10.67
2023-05-04T10:21:48.799Z,7.60
2023-05-04T10:24:34.435Z,8.20
2023-05-04T10:27:21.628Z,9.77
2023-05-04T10:29:50.610Z,6.47
2023-05-04T10:32:22.326Z,14.07
2023-05-04T10:34:49.763Z,9.60
2023-05-04T10:37:18.914Z,8.77
2023-05-04T10:39:53.654Z,9.77
2023-05-04T10:42:21.559Z,10.63
2023-05-04T10:44:56.392Z,9.43
2023-05-04T10:47:32.658Z,8.53
2023-05-04T10:50:06.966Z,9.60
2023-05-04T10:52:48.673Z,12.20
2023-05-04T10:55:16.517Z,11.63
2023-05-04T10:57:51.833Z,8.53
2023-05-04T11:00:19.260Z,8.97
2023-05-04T11:02:47.710Z,10.67
2023-05-04T11:05:20.524Z,10.17
2023-05-04T11:07:53.003Z,7.60
2023-05-04T11:10:25.064Z,9.67
2023-05-04T11:12:52.917Z,8.43
2023-05-04T11:15:21.363Z,11.13
2023-05-04T11:17:52.883Z,9.73
2023-05-04T11:20:27.214Z,7.00
2023-05-04T11:22:54.716Z,6.97
2023-05-04T11:25:28.713Z,8.13
2023-05-04T11:27:56.365Z,7.87
2023-05-04T11:30:36.317Z,6.20
2023-05-04T11:33:11.805Z,6.50
2023-05-04T11:35:39.239Z,7.20
2023-05-04T11:38:07.565Z,7.80
2023-05-04T11:40:36.190Z,6.93
2023-05-04T11:43:04.337Z,6.57
2023-05-04T11:45:34.383Z,7.20
2023-05-04T11:48:02.365Z,8.27
2023-05-04T11:50:29.843Z,6.43
2023-05-04T11:53:09.446Z,9.00
2023-05-04T11:55:39.990Z,9.87
2023-05-04T11:58:08.180Z,9.50
2023-05-04T12:00:37.418Z,8.67
2023-05-04T12:03:08.137Z,8.17
2023-05-04T12:05:36.722Z,8.00
2023-05-04T12:08:04.684Z,6.73
2023-05-04T12:10:34.828Z,6.10
2023-05-04T12:13:02.720Z,6.13
2023-05-04T12:15:36.496Z,6.53
2023-05-04T12:18:04.345Z,9.27
2023-05-04T12:20:31.520Z,8.70
2023-05-04T12:23:05.385Z,10.97
2023-05-04T12:25:32.240Z,8.17
2023-05-04T12:27:59.084Z,6.37
2023-05-04T12:30:26.033Z,7.90
2023-05-04T12:32:52.860Z,8.13
2023-05-04T12:35:19.865Z,6.63
2023-05-04T12:37:47.267Z,5.97
2023-05-04T12:40:27.851Z,7.37
2023-05-04T12:42:55.713Z,7.30
2023-05-04T12:45:22.772Z,6.87
2023-05-04T12:47:49.761Z,7.87
2023-05-04T12:50:16.753Z,7.47
2023-05-04T12:52:43.622Z,8.37
2023-05-04T12:55:10.476Z,6.67
2023-05-04T12:57:37.796Z,7.43
2023-05-04T13:00:08.535Z,9.03
2023-05-04T13:02:35.626Z,9.07
2023-05-04T13:05:02.509Z,5.63
2023-05-04T13:07:29.444Z,6.67
2023-05-04T13:09:56.926Z,11.00
2023-05-04T13:12:24.085Z,5.80
2023-05-04T13:14:55.351Z,8.40
2023-05-04T13:17:22.448Z,7.07
2023-05-04T13:19:49.696Z,7.23
2023-05-04T13:22:16.865Z,5.07
2023-05-04T13:24:43.803Z,6.47
2023-05-04T13:27:10.696Z,6.27
2023-05-04T13:29:38.028Z,5.27
2023-05-04T13:32:05.111Z,6.57
2023-05-04T13:34:32.711Z,7.63
2023-05-04T13:36:59.754Z,8.07
2023-05-04T13:39:27.302Z,6.23
2023-05-04T13:41:54.252Z,10.97
2023-05-04T13:44:21.165Z,7.90
2023-05-04T13:46:48.095Z,5.73
2023-05-04T13:49:15.047Z,7.17
2023-05-04T13:51:43.328Z,11.03
2023-05-04T13:54:10.232Z,8.20
2023-05-04T13:56:37.106Z,5.23
2023-05-04T13:59:04.046Z,6.47
2023-05-04T14:01:31.434Z,6.30
2023-05-04T14:03:58.794Z,8.03
2023-05-04T14:06:26.141Z,5.30
2023-05-04T14:08:53.177Z,10.13
2023-05-04T14:11:20.534Z,5.43
2023-05-04T14:13:48.652Z,5.90
2023-05-04T14:16:15.936Z,6.73
2023-05-04T14:18:43.821Z,9.43
2023-05-04T14:21:10.619Z,5.77
2023-05-04T14:23:38.029Z,6.00
2023-05-04T14:26:04.977Z,6.83
2023-05-04T14:28:31.966Z,8.23
2023-05-04T14:30:59.653Z,7.20
2023-05-04T14:33:26.522Z,4.97
2023-05-04T14:35:53.397Z,7.37
2023-05-04T14:38:20.211Z,5.83
2023-05-04T14:40:49.450Z,6.73
2023-05-04T14:43:16.503Z,4.43
2023-05-04T14:45:43.910Z,6.43
2023-05-04T14:48:11.285Z,4.90
2023-05-04T14:50:38.176Z,5.10
2023-05-04T14:53:04.989Z,5.53
2023-05-04T14:55:33.757Z,7.23
2023-05-04T14:58:00.863Z,6.23
2023-05-04T15:00:27.882Z,6.10
2023-05-04T15:02:54.821Z,7.27
2023-05-04T15:05:21.831Z,6.87
2023-05-04T15:07:48.688Z,8.33
2023-05-04T15:10:15.659Z,5.57
2023-05-04T15:12:43.102Z,7.37
2023-05-04T15:15:10.475Z,7.10
2023-05-04T15:17:37.622Z,6.30
2023-05-04T15:20:05.889Z,10.17
2023-05-04T15:22:32.960Z,6.90
2023-05-04T15:25:01.770Z,5.03
2023-05-04T15:27:28.627Z,6.13
2023-05-04T15:29:55.774Z,5.80
2023-05-04T15:32:22.714Z,4.63
2023-05-04T15:34:57.413Z,6.17
2023-05-04T15:37:31.222Z,6.07
2023-05-04T15:40:01.129Z,5.53
2023-05-04T15:42:29.147Z,4.50
2023-05-04T15:44:56.261Z,4.23
2023-05-04T15:47:23.155Z,3.93
2023-05-04T15:49:50.180Z,5.23
2023-05-04T15:52:17.034Z,3.50
2023-05-04T15:54:44.294Z,6.20
2023-05-04T15:57:11.339Z,6.87
2023-05-04T15:59:38.449Z,6.03
2023-05-04T16:02:06.475Z,4.07
2023-05-04T16:04:33.563Z,3.83
2023-05-04T16:07:00.456Z,3.77
2023-05-04T16:09:28.275Z,5.83
2023-05-04T16:11:55.139Z,5.43
2023-05-04T16:14:22.047Z,5.27
2023-05-04T16:16:49.064Z,5.10
2023-05-04T16:19:15.966Z,4.07
2023-05-04T16:21:42.802Z,6.77
2023-05-04T16:24:10.185Z,2.93
2023-05-04T16:26:37.103Z,2.90
2023-05-04T16:29:04.077Z,6.20
2023-05-04T16:31:30.948Z,3.43
2023-05-04T16:33:57.931Z,5.60
2023-05-04T16:36:24.956Z,6.37
2023-05-04T16:38:52.272Z,2.97
2023-05-04T16:41:19.150Z,5.43
2023-05-04T16:43:47.399Z,3.90
2023-05-04T16:46:14.375Z,4.40
2023-05-04T16:48:41.298Z,4.30
2023-05-04T16:51:08.546Z,4.23
2023-05-04T16:53:35.827Z,5.00
2023-05-04T16:56:03.063Z,3.60
2023-05-04T16:58:30.061Z,2.57
2023-05-04T17:00:58.299Z,4.70
2023-05-04T17:03:25.294Z,4.70
2023-05-04T17:05:52.253Z,5.67
2023-05-04T17:08:19.120Z,5.93
2023-05-04T17:10:46.189Z,3.43
2023-05-04T17:13:13.264Z,6.03
2023-05-04T17:15:40.103Z,6.87
2023-05-04T17:18:07.242Z,3.30
2023-05-04T17:20:34.213Z,2.60
2023-05-04T17:23:01.088Z,5.03
2023-05-04T17:25:28.054Z,3.10
2023-05-04T17:27:55.454Z,4.37
2023-05-04T17:30:22.561Z,6.37
2023-05-04T17:32:49.619Z,3.47
2023-05-04T17:35:25.197Z,4.83
2023-05-04T17:37:58.892Z,3.00
2023-05-04T17:40:27.772Z,2.60
2023-05-04T17:42:55.616Z,2.67
2023-05-04T17:45:22.692Z,4.73
2023-05-04T17:47:51.166Z,3.50
2023-05-04T17:50:18.284Z,5.30
2023-05-04T17:52:45.203Z,4.57
2023-05-04T17:55:12.156Z,4.83
2023-05-04T17:57:40.288Z,3.70
2023-05-04T18:00:08.584Z,3.33
2023-05-04T18:02:35.952Z,3.93
2023-05-04T18:05:03.030Z,2.97
2023-05-04T18:07:29.882Z,5.13
2023-05-04T18:09:56.858Z,5.40
2023-05-04T18:12:23.841Z,3.47
2023-05-04T18:14:51.279Z,6.17
2023-05-04T18:17:18.135Z,3.73
2023-05-04T18:19:44.972Z,3.03
2023-05-04T18:22:11.822Z,5.73
2023-05-04T18:24:38.678Z,8.40
2023-05-04T18:27:05.705Z,6.77
2023-05-04T18:29:32.595Z,5.43
2023-05-04T18:32:01.496Z,2.50
2023-05-04T18:34:28.557Z,4.97
2023-05-04T18:36:55.642Z,5.10
2023-05-04T18:39:22.752Z,2.97
2023-05-04T18:41:49.603Z,3.00
2023-05-04T18:44:16.941Z,3.50
2023-05-04T18:46:43.823Z,4.87
2023-05-04T18:49:10.704Z,5.73
2023-05-04T18:51:37.864Z,4.33
2023-05-04T18:54:04.811Z,4.83
2023-05-04T18:56:32.709Z,5.90
2023-05-04T18:58:59.612Z,3.67
2023-05-04T19:01:27.947Z,3.93
2023-05-04T19:03:55.227Z,3.50
2023-05-04T19:06:22.293Z,3.07
2023-05-04T19:08:49.544Z,4.37
2023-05-04T19:11:16.509Z,4.37
2023-05-04T19:13:43.584Z,5.00
2023-05-04T19:16:13.682Z,4.70
2023-05-04T19:18:40.683Z,5.50
2023-05-04T19:21:08.643Z,3.53
2023-05-04T19:23:35.718Z,3.00
2023-05-04T19:26:02.916Z,3.67
2023-05-04T19:28:29.916Z,4.60
2023-05-04T19:30:57.756Z,4.03
2023-05-04T19:33:36.407Z,3.80
2023-05-04T19:36:08.092Z,4.50
2023-05-04T19:38:35.034Z,4.97
2023-05-04T19:41:01.903Z,5.83
2023-05-04T19:43:28.735Z,4.53
2023-05-04T19:45:57.346Z,5.80
2023-05-04T19:48:24.502Z,7.17
2023-05-04T19:50:51.463Z,6.00
2023-05-04T19:53:18.690Z,7.90
2023-05-04T19:55:45.616Z,7.77
2023-05-04T19:58:12.606Z,5.40
2023-05-04T20:00:39.490Z,4.60
2023-05-04T20:03:06.701Z,5.87
2023-05-04T20:05:33.706Z,5.43
2023-05-04T20:08:03.352Z,4.67
2023-05-04T20:10:32.030Z,4.43
2023-05-04T20:12:59.042Z,7.10
2023-05-04T20:15:26.062Z,6.43
2023-05-04T20:17:53.292Z,7.97
2023-05-04T20:20:21.636Z,7.20
2023-05-04T20:22:52.301Z,7.23
2023-05-04T20:25:20.034Z,11.77
2023-05-04T20:27:48.754Z,10.20
2023-05-04T20:30:16.034Z,10.33
2023-05-04T20:32:44.166Z,7.33
2023-05-04T20:35:11.332Z,10.50
2023-05-04T20:37:38.428Z,8.60
2023-05-04T20:40:06.647Z,10.97
2023-05-04T20:42:33.613Z,11.00
2023-05-04T20:45:00.722Z,10.10
2023-05-04T20:47:27.606Z,6.73
2023-05-04T20:49:55.353Z,9.50
2023-05-04T20:52:22.165Z,11.07
2023-05-04T20:54:49.121Z,8.97
2023-05-04T20:57:15.944Z,10.57
2023-05-04T20:59:42.781Z,6.63
2023-05-04T21:02:09.689Z,9.27
2023-05-04T21:04:36.525Z,10.03
2023-05-04T21:07:03.330Z,8.90
2023-05-04T21:09:30.175Z,11.23
2023-05-04T21:11:58.397Z,13.03
2023-05-04T21:14:26.809Z,8.53
2023-05-04T21:16:53.709Z,8.73
2023-05-04T21:19:20.602Z,8.80
2023-05-04T21:21:47.515Z,8.27
2023-05-04T21:24:14.752Z,9.47
2023-05-04T21:26:41.895Z,8.90
2023-05-04T21:29:14.900Z,9.07
2023-05-04T21:31:42.160Z,7.80
2023-05-04T21:34:09.210Z,7.20
2023-05-04T21:36:36.371Z,10.43
2023-05-04T21:39:03.638Z,6.13
2023-05-04T21:41:30.706Z,8.27
2023-05-04T21:43:57.862Z,10.00
2023-05-04T21:46:24.827Z,8.80
2023-05-04T21:48:51.962Z,9.57
2023-05-04T21:51:20.837Z,6.50
2023-05-04T21:53:48.107Z,10.37
2023-05-04T21:56:14.956Z,9.00
2023-05-04T21:58:42.234Z,6.10
2023-05-04T22:01:09.903Z,8.13
2023-05-04T22:03:37.088Z,12.93
2023-05-04T22:06:04.283Z,8.63
2023-05-04T22:08:31.279Z,12.13
2023-05-04T22:10:58.814Z,7.70
2023-05-04T22:13:26.203Z,10.53
2023-05-04T22:15:54.121Z,8.63
2023-05-04T22:18:21.602Z,8.00
2023-05-04T22:20:48.600Z,8.97
2023-05-04T22:23:15.708Z,7.00
2023-05-04T22:25:43.068Z,8.13
2023-05-04T22:28:10.039Z,7.13
2023-05-04T22:30:37.058Z,9.37
2023-05-04T22:33:04.107Z,9.60
2023-05-04T22:35:34.096Z,9.77
2023-05-04T22:38:01.068Z,7.90
2023-05-04T22:40:28.099Z,7.47
2023-05-04T22:42:54.976Z,9.80
2023-05-04T22:45:22.072Z,9.90
2023-05-04T22:47:48.938Z,10.07
2023-05-04T22:50:15.938Z,10.30
2023-05-04T22:52:43.059Z,10.77
2023-05-04T22:55:10.178Z,9.47
2023-05-04T22:57:37.301Z,9.47
2023-05-04T23:00:08.695Z,10.33
2023-05-04T23:02:36.235Z,7.40
2023-05-04T23:05:04.004Z,8.20
2023-05-04T23:07:31.190Z,8.40
2023-05-04T23:09:58.225Z,11.37
2023-05-04T23:12:26.448Z,11.17
2023-05-04T23:14:54.161Z,8.00
2023-05-04T23:17:24.374Z,7.73
2023-05-04T23:19:51.356Z,12.93
2023-05-04T23:22:18.271Z,9.13
2023-05-04T23:24:45.123Z,10.00
2023-05-04T23:27:12.484Z,8.27
2023-05-04T23:29:39.362Z,7.40
2023-05-04T23:32:06.518Z,8.07
2023-05-04T23:34:33.655Z,8.03
2023-05-04T23:37:00.717Z,8.37
2023-05-04T23:39:27.580Z,8.13
2023-05-04T23:41:54.442Z,9.90
2023-05-04T23:44:21.396Z,7.30
2023-05-04T23:46:48.489Z,7.27
2023-05-04T23:49:15.485Z,8.23
2023-05-04T23:51:42.358Z,8.87
2023-05-04T23:54:09.786Z,10.13
2023-05-04T23:56:36.628Z,8.10
2023-05-04T23:59:03.893Z,9.67
